Key West, FL

1:52 PM EST on December 10, 2016 (GMT -0500)
Key West International | | Change Station

Elev 0 ft 24.56 °N, 81.75 °W | Updated 59 minutes ago

Clear
Clear
76 °F
Feels Like 76 °F
N
16
Wind Variable Wind from NNE
Gusts 23 mph

Today
High -- | Low -- °F
--% Chance of Precip.
Yesterday
High -- | Low -- °F
Precip. -- in
Pressure 30.17 in
Visibility 10.0 miles
Clouds Clear
Dew Point 69 °F
Humidity 79%
Rainfall 0.00 in
Snow Depth Not available.
7:00 AM 5:39 PM
Waxing Gibbous, 85% visible
METAR KEYW 101753Z 03014G20KT 10SM CLR 24/21 A3017 RMK AO2 SLP216 T02440206 10250 20211 58023
Pressure 30.17 in
Visibility 10.0 miles
Clouds Clear
Dew Point 69 °F
Humidity 79%
Rainfall 0.00 in
Snow Depth Not available.
7:00 AM 5:39 PM
Waxing Gibbous, 85% visible
METAR KEYW 101753Z 03014G20KT 10SM CLR 24/21 A3017 RMK AO2 SLP216 T02440206 10250 20211 58023

10-Day Weather Forecast

Almanac

Astronomy

Dec. 10, 2016 Rise Set
Actual Time
Civil Twilight
Nautical Twilight
Astronomical Twilight
Moon
Length of Visible Light
Length of Day
Tomorrow will be .
, % of the Moon is Illuminated

Today's Extremes

State Highs State Lows

Community

WunderPhotos

Upload Photos

1,956,620 photos uploaded!

WunderBlog® & News

Nearby

Air Quality

  Air Quality AQ Index Pollutant
Not available.

Snow Depth

Station Depth Elevation

Earthquake Activity

City Distance Mag. Time & Date
Minimum magnitude displayed is 2.5.

Coastal Water Temperatures

Place Temperature

Stations

Nearby Weather Stations

Station Location Temp. Windchill Dew Point Humidity Wind Precip. Elev Updated Type
                   

Watches & Warnings

There are currently no watches in effect.